sensor_id;sensor_type;location;lat;lon;timestamp;temperature;humidity
37678;DHT22;23517;50.390;8.616;2023-07-13T00:01:53;15.70;43.20
37678;DHT22;23517;50.390;8.616;2023-07-13T00:04:22;15.80;42.80
37678;DHT22;23517;50.390;8.616;2023-07-13T00:06:50;15.80;42.50
37678;DHT22;23517;50.390;8.616;2023-07-13T00:09:18;15.90;42.60
37678;DHT22;23517;50.390;8.616;2023-07-13T00:11:49;15.90;42.20
37678;DHT22;23517;50.390;8.616;2023-07-13T00:14:17;15.90;42.10
37678;DHT22;23517;50.390;8.616;2023-07-13T00:16:45;15.90;42.10
37678;DHT22;23517;50.390;8.616;2023-07-13T00:19:13;16.00;41.20
37678;DHT22;23517;50.390;8.616;2023-07-13T00:21:40;16.10;41.00
37678;DHT22;23517;50.390;8.616;2023-07-13T00:24:11;16.30;39.70
37678;DHT22;23517;50.390;8.616;2023-07-13T00:26:40;16.50;38.90
37678;DHT22;23517;50.390;8.616;2023-07-13T00:29:07;16.70;38.80
37678;DHT22;23517;50.390;8.616;2023-07-13T00:31:35;16.70;38.00
37678;DHT22;23517;50.390;8.616;2023-07-13T00:34:02;16.80;37.50
37678;DHT22;23517;50.390;8.616;2023-07-13T00:36:30;17.00;36.20
37678;DHT22;23517;50.390;8.616;2023-07-13T00:38:57;17.20;35.60
37678;DHT22;23517;50.390;8.616;2023-07-13T00:41:24;17.30;34.70
37678;DHT22;23517;50.390;8.616;2023-07-13T00:43:51;17.50;34.50
37678;DHT22;23517;50.390;8.616;2023-07-13T00:46:21;17.60;33.80
37678;DHT22;23517;50.390;8.616;2023-07-13T00:48:50;17.70;33.80
37678;DHT22;23517;50.390;8.616;2023-07-13T00:51:21;17.80;33.40
37678;DHT22;23517;50.390;8.616;2023-07-13T00:53:53;17.90;33.60
37678;DHT22;23517;50.390;8.616;2023-07-13T00:56:21;17.90;33.20
37678;DHT22;23517;50.390;8.616;2023-07-13T00:58:48;18.00;32.30
37678;DHT22;23517;50.390;8.616;2023-07-13T01:01:14;18.10;32.10
37678;DHT22;23517;50.390;8.616;2023-07-13T01:03:42;18.10;31.80
37678;DHT22;23517;50.390;8.616;2023-07-13T01:06:09;18.10;31.80
37678;DHT22;23517;50.390;8.616;2023-07-13T01:08:36;18.20;31.80
37678;DHT22;23517;50.390;8.616;2023-07-13T01:11:03;18.20;31.50
37678;DHT22;23517;50.390;8.616;2023-07-13T01:13:30;18.20;31.20
37678;DHT22;23517;50.390;8.616;2023-07-13T01:15:58;18.20;31.10
37678;DHT22;23517;50.390;8.616;2023-07-13T01:18:31;18.20;31.20
37678;DHT22;23517;50.390;8.616;2023-07-13T01:21:04;18.20;31.10
37678;DHT22;23517;50.390;8.616;2023-07-13T01:23:32;18.20;31.20
37678;DHT22;23517;50.390;8.616;2023-07-13T01:25:59;18.20;31.30
37678;DHT22;23517;50.390;8.616;2023-07-13T01:28:27;18.10;31.40
37678;DHT22;23517;50.390;8.616;2023-07-13T01:30:56;18.10;31.40
37678;DHT22;23517;50.390;8.616;2023-07-13T01:33:24;18.10;31.50
37678;DHT22;23517;50.390;8.616;2023-07-13T01:35:51;18.00;31.70
37678;DHT22;23517;50.390;8.616;2023-07-13T01:38:21;17.90;31.80
37678;DHT22;23517;50.390;8.616;2023-07-13T01:40:49;17.90;32.10
37678;DHT22;23517;50.390;8.616;2023-07-13T01:43:18;17.80;32.20
37678;DHT22;23517;50.390;8.616;2023-07-13T01:45:45;17.70;32.40
37678;DHT22;23517;50.390;8.616;2023-07-13T01:48:13;17.70;32.40
37678;DHT22;23517;50.390;8.616;2023-07-13T01:50:40;17.60;32.50
37678;DHT22;23517;50.390;8.616;2023-07-13T01:53:06;17.60;32.60
37678;DHT22;23517;50.390;8.616;2023-07-13T01:55:34;17.50;33.20
37678;DHT22;23517;50.390;8.616;2023-07-13T01:58:03;17.40;33.00
37678;DHT22;23517;50.390;8.616;2023-07-13T02:00:30;17.40;33.00
37678;DHT22;23517;50.390;8.616;2023-07-13T02:02:57;17.30;32.90
37678;DHT22;23517;50.390;8.616;2023-07-13T02:05:24;17.30;32.90
37678;DHT22;23517;50.390;8.616;2023-07-13T02:07:51;17.20;33.00
37678;DHT22;23517;50.390;8.616;2023-07-13T02:10:19;17.20;33.30
37678;DHT22;23517;50.390;8.616;2023-07-13T02:12:49;17.10;33.40
37678;DHT22;23517;50.390;8.616;2023-07-13T02:15:18;17.10;33.70
37678;DHT22;23517;50.390;8.616;2023-07-13T02:17:46;17.00;33.90
37678;DHT22;23517;50.390;8.616;2023-07-13T02:20:13;17.00;34.00
37678;DHT22;23517;50.390;8.616;2023-07-13T02:22:39;16.90;34.20
37678;DHT22;23517;50.390;8.616;2023-07-13T02:25:06;16.80;34.30
37678;DHT22;23517;50.390;8.616;2023-07-13T02:27:33;16.80;34.40
37678;DHT22;23517;50.390;8.616;2023-07-13T02:30:00;16.80;34.40
37678;DHT22;23517;50.390;8.616;2023-07-13T02:32:27;16.70;34.50
37678;DHT22;23517;50.390;8.616;2023-07-13T02:34:54;16.70;34.40
37678;DHT22;23517;50.390;8.616;2023-07-13T02:37:20;16.80;34.30
37678;DHT22;23517;50.390;8.616;2023-07-13T02:39:47;16.80;34.20
37678;DHT22;23517;50.390;8.616;2023-07-13T02:42:14;16.80;34.00
37678;DHT22;23517;50.390;8.616;2023-07-13T02:44:41;16.80;33.70
37678;DHT22;23517;50.390;8.616;2023-07-13T02:47:10;16.80;33.70
37678;DHT22;23517;50.390;8.616;2023-07-13T02:49:36;16.70;33.80
37678;DHT22;23517;50.390;8.616;2023-07-13T02:52:03;16.70;33.50
37678;DHT22;23517;50.390;8.616;2023-07-13T02:54:31;16.70;33.50
37678;DHT22;23517;50.390;8.616;2023-07-13T02:56:57;16.70;33.50
37678;DHT22;23517;50.390;8.616;2023-07-13T02:59:24;16.70;33.60
37678;DHT22;23517;50.390;8.616;2023-07-13T03:01:51;16.70;33.70
37678;DHT22;23517;50.390;8.616;2023-07-13T03:04:18;16.60;33.70
37678;DHT22;23517;50.390;8.616;2023-07-13T03:06:46;16.60;34.20
37678;DHT22;23517;50.390;8.616;2023-07-13T03:09:13;16.50;34.60
37678;DHT22;23517;50.390;8.616;2023-07-13T03:11:43;16.30;35.10
37678;DHT22;23517;50.390;8.616;2023-07-13T03:14:10;16.10;35.60
37678;DHT22;23517;50.390;8.616;2023-07-13T03:16:36;16.00;36.20
37678;DHT22;23517;50.390;8.616;2023-07-13T03:19:03;15.90;36.10
37678;DHT22;23517;50.390;8.616;2023-07-13T03:21:30;15.90;36.30
37678;DHT22;23517;50.390;8.616;2023-07-13T03:23:57;15.80;36.50
37678;DHT22;23517;50.390;8.616;2023-07-13T03:26:23;15.70;36.70
37678;DHT22;23517;50.390;8.616;2023-07-13T03:28:50;15.80;36.50
37678;DHT22;23517;50.390;8.616;2023-07-13T03:31:22;15.70;36.40
37678;DHT22;23517;50.390;8.616;2023-07-13T03:33:56;15.70;36.50
37678;DHT22;23517;50.390;8.616;2023-07-13T03:36:26;15.90;35.90
37678;DHT22;23517;50.390;8.616;2023-07-13T03:38:57;16.00;35.60
37678;DHT22;23517;50.390;8.616;2023-07-13T03:41:26;16.00;35.50
37678;DHT22;23517;50.390;8.616;2023-07-13T03:43:53;16.10;35.20
37678;DHT22;23517;50.390;8.616;2023-07-13T03:46:20;16.00;35.40
37678;DHT22;23517;50.390;8.616;2023-07-13T03:48:47;15.90;36.00
37678;DHT22;23517;50.390;8.616;2023-07-13T03:51:15;16.00;35.50
37678;DHT22;23517;50.390;8.616;2023-07-13T03:53:44;16.00;35.40
37678;DHT22;23517;50.390;8.616;2023-07-13T03:56:12;16.00;35.40
37678;DHT22;23517;50.390;8.616;2023-07-13T03:58:44;16.00;35.50
37678;DHT22;23517;50.390;8.616;2023-07-13T04:01:14;16.10;35.30
37678;DHT22;23517;50.390;8.616;2023-07-13T04:03:42;16.10;35.30
37678;DHT22;23517;50.390;8.616;2023-07-13T04:06:20;16.00;36.00
37678;DHT22;23517;50.390;8.616;2023-07-13T04:08:55;16.00;35.30
37678;DHT22;23517;50.390;8.616;2023-07-13T04:11:25;16.00;35.50
37678;DHT22;23517;50.390;8.616;2023-07-13T04:13:54;16.10;35.40
37678;DHT22;23517;50.390;8.616;2023-07-13T04:16:21;16.00;35.40
37678;DHT22;23517;50.390;8.616;2023-07-13T04:18:49;16.00;35.70
37678;DHT22;23517;50.390;8.616;2023-07-13T04:21:16;16.00;35.60
37678;DHT22;23517;50.390;8.616;2023-07-13T04:23:43;16.10;35.70
37678;DHT22;23517;50.390;8.616;2023-07-13T04:26:10;16.10;35.80
37678;DHT22;23517;50.390;8.616;2023-07-13T04:28:37;16.10;35.80
37678;DHT22;23517;50.390;8.616;2023-07-13T04:31:04;16.20;35.80
37678;DHT22;23517;50.390;8.616;2023-07-13T04:33:31;16.20;35.90
37678;DHT22;23517;50.390;8.616;2023-07-13T04:35:58;16.30;36.10
37678;DHT22;23517;50.390;8.616;2023-07-13T04:38:27;16.40;36.00
37678;DHT22;23517;50.390;8.616;2023-07-13T04:40:58;16.40;35.80
37678;DHT22;23517;50.390;8.616;2023-07-13T04:43:28;16.50;35.70
37678;DHT22;23517;50.390;8.616;2023-07-13T04:45:56;16.60;35.20
37678;DHT22;23517;50.390;8.616;2023-07-13T04:48:24;16.70;36.00
37678;DHT22;23517;50.390;8.616;2023-07-13T04:50:55;16.90;34.40
37678;DHT22;23517;50.390;8.616;2023-07-13T04:53:23;17.60;32.20
37678;DHT22;23517;50.390;8.616;2023-07-13T04:55:50;18.60;30.40
37678;DHT22;23517;50.390;8.616;2023-07-13T04:58:17;19.70;28.10
37678;DHT22;23517;50.390;8.616;2023-07-13T05:00:44;20.70;25.10
37678;DHT22;23517;50.390;8.616;2023-07-13T05:03:10;21.30;23.00
37678;DHT22;23517;50.390;8.616;2023-07-13T05:05:37;21.60;22.40
37678;DHT22;23517;50.390;8.616;2023-07-13T05:08:04;21.30;22.50
37678;DHT22;23517;50.390;8.616;2023-07-13T05:10:30;21.00;23.10
37678;DHT22;23517;50.390;8.616;2023-07-13T05:12:57;20.70;23.10
37678;DHT22;23517;50.390;8.616;2023-07-13T05:15:26;20.50;24.10
37678;DHT22;23517;50.390;8.616;2023-07-13T05:17:53;20.40;23.80
37678;DHT22;23517;50.390;8.616;2023-07-13T05:20:19;20.20;23.90
37678;DHT22;23517;50.390;8.616;2023-07-13T05:22:46;19.90;24.40
37678;DHT22;23517;50.390;8.616;2023-07-13T05:25:14;19.90;24.40
37678;DHT22;23517;50.390;8.616;2023-07-13T05:27:41;19.80;25.10
37678;DHT22;23517;50.390;8.616;2023-07-13T05:30:08;20.00;25.10
37678;DHT22;23517;50.390;8.616;2023-07-13T05:32:37;20.20;24.90
37678;DHT22;23517;50.390;8.616;2023-07-13T05:35:05;20.30;24.00
37678;DHT22;23517;50.390;8.616;2023-07-13T05:37:33;20.50;24.10
37678;DHT22;23517;50.390;8.616;2023-07-13T05:40:00;20.70;23.80
37678;DHT22;23517;50.390;8.616;2023-07-13T05:42:26;20.90;22.50
37678;DHT22;23517;50.390;8.616;2023-07-13T05:44:55;21.10;22.20
37678;DHT22;23517;50.390;8.616;2023-07-13T05:47:22;21.30;22.20
37678;DHT22;23517;50.390;8.616;2023-07-13T05:49:49;21.60;21.70
37678;DHT22;23517;50.390;8.616;2023-07-13T05:52:15;22.00;21.60
37678;DHT22;23517;50.390;8.616;2023-07-13T05:54:42;22.80;19.60
37678;DHT22;23517;50.390;8.616;2023-07-13T05:57:09;24.20;18.40
37678;DHT22;23517;50.390;8.616;2023-07-13T05:59:35;26.00;14.90
37678;DHT22;23517;50.390;8.616;2023-07-13T06:02:03;27.00;13.60
37678;DHT22;23517;50.390;8.616;2023-07-13T06:04:30;28.10;12.20
37678;DHT22;23517;50.390;8.616;2023-07-13T06:09:24;29.80;9.60
37678;DHT22;23517;50.390;8.616;2023-07-13T06:11:50;29.70;10.10
37678;DHT22;23517;50.390;8.616;2023-07-13T06:14:17;30.00;9.60
37678;DHT22;23517;50.390;8.616;2023-07-13T06:16:44;29.00;11.10
37678;DHT22;23517;50.390;8.616;2023-07-13T06:19:10;29.90;10.50
37678;DHT22;23517;50.390;8.616;2023-07-13T06:21:37;30.10;10.30
37678;DHT22;23517;50.390;8.616;2023-07-13T06:24:04;30.90;8.20
37678;DHT22;23517;50.390;8.616;2023-07-13T06:26:31;31.00;9.40
37678;DHT22;23517;50.390;8.616;2023-07-13T06:28:58;31.10;8.80
37678;DHT22;23517;50.390;8.616;2023-07-13T06:31:25;31.40;8.30
37678;DHT22;23517;50.390;8.616;2023-07-13T06:33:52;31.40;8.90
37678;DHT22;23517;50.390;8.616;2023-07-13T06:36:18;31.80;7.70
37678;DHT22;23517;50.390;8.616;2023-07-13T06:38:45;32.20;7.40
37678;DHT22;23517;50.390;8.616;2023-07-13T06:41:12;31.00;8.60
37678;DHT22;23517;50.390;8.616;2023-07-13T06:43:39;31.40;8.90
37678;DHT22;23517;50.390;8.616;2023-07-13T06:46:07;32.50;7.20
37678;DHT22;23517;50.390;8.616;2023-07-13T06:48:34;32.40;7.10
37678;DHT22;23517;50.390;8.616;2023-07-13T06:51:02;32.50;7.70
37678;DHT22;23517;50.390;8.616;2023-07-13T06:53:29;32.80;7.30
37678;DHT22;23517;50.390;8.616;2023-07-13T06:55:56;33.00;7.40
37678;DHT22;23517;50.390;8.616;2023-07-13T06:58:22;33.50;6.00
37678;DHT22;23517;50.390;8.616;2023-07-13T07:00:52;33.80;5.80
37678;DHT22;23517;50.390;8.616;2023-07-13T07:03:20;33.70;5.90
37678;DHT22;23517;50.390;8.616;2023-07-13T07:05:47;33.20;6.70
37678;DHT22;23517;50.390;8.616;2023-07-13T07:08:13;33.50;6.30
37678;DHT22;23517;50.390;8.616;2023-07-13T07:10:41;34.00;5.90
37678;DHT22;23517;50.390;8.616;2023-07-13T07:13:08;34.00;5.90
37678;DHT22;23517;50.390;8.616;2023-07-13T07:15:35;34.20;5.60
37678;DHT22;23517;50.390;8.616;2023-07-13T07:18:02;33.00;6.80
37678;DHT22;23517;50.390;8.616;2023-07-13T07:20:29;33.00;6.20
37678;DHT22;23517;50.390;8.616;2023-07-13T07:22:57;32.20;7.30
37678;DHT22;23517;50.390;8.616;2023-07-13T07:25:23;33.00;7.00
37678;DHT22;23517;50.390;8.616;2023-07-13T07:27:50;33.00;6.40
37678;DHT22;23517;50.390;8.616;2023-07-13T07:30:20;32.80;6.40
37678;DHT22;23517;50.390;8.616;2023-07-13T07:32:49;32.60;6.90
37678;DHT22;23517;50.390;8.616;2023-07-13T07:35:19;31.50;7.70
37678;DHT22;23517;50.390;8.616;2023-07-13T07:37:46;32.00;8.50
37678;DHT22;23517;50.390;8.616;2023-07-13T07:40:17;33.30;7.10
37678;DHT22;23517;50.390;8.616;2023-07-13T07:42:47;34.20;6.00
37678;DHT22;23517;50.390;8.616;2023-07-13T07:45:14;34.00;6.20
37678;DHT22;23517;50.390;8.616;2023-07-13T07:47:41;33.70;6.20
37678;DHT22;23517;50.390;8.616;2023-07-13T07:50:08;33.30;6.70
37678;DHT22;23517;50.390;8.616;2023-07-13T07:52:36;33.50;6.50
37678;DHT22;23517;50.390;8.616;2023-07-13T07:55:04;33.20;6.70
37678;DHT22;23517;50.390;8.616;2023-07-13T07:57:35;32.60;7.40
37678;DHT22;23517;50.390;8.616;2023-07-13T08:00:06;32.30;7.10
37678;DHT22;23517;50.390;8.616;2023-07-13T08:02:36;31.60;7.90
37678;DHT22;23517;50.390;8.616;2023-07-13T08:05:05;30.90;8.70
37678;DHT22;23517;50.390;8.616;2023-07-13T08:07:37;30.70;9.00
37678;DHT22;23517;50.390;8.616;2023-07-13T08:10:06;30.30;9.10
37678;DHT22;23517;50.390;8.616;2023-07-13T08:12:37;30.60;8.30
37678;DHT22;23517;50.390;8.616;2023-07-13T08:15:10;30.30;9.00
37678;DHT22;23517;50.390;8.616;2023-07-13T08:17:38;29.90;8.50
37678;DHT22;23517;50.390;8.616;2023-07-13T08:20:06;29.30;9.30
37678;DHT22;23517;50.390;8.616;2023-07-13T08:22:33;29.20;9.60
37678;DHT22;23517;50.390;8.616;2023-07-13T08:25:00;28.70;9.60
37678;DHT22;23517;50.390;8.616;2023-07-13T08:27:27;28.30;10.80
37678;DHT22;23517;50.390;8.616;2023-07-13T08:29:54;28.10;11.30
37678;DHT22;23517;50.390;8.616;2023-07-13T08:32:22;28.10;11.20
37678;DHT22;23517;50.390;8.616;2023-07-13T08:34:49;27.90;11.00
37678;DHT22;23517;50.390;8.616;2023-07-13T08:37:16;27.60;11.10
37678;DHT22;23517;50.390;8.616;2023-07-13T08:39:45;27.40;10.60
37678;DHT22;23517;50.390;8.616;2023-07-13T08:44:57;27.60;10.70
37678;DHT22;23517;50.390;8.616;2023-07-13T08:50:36;28.30;9.90
37678;DHT22;23517;50.390;8.616;2023-07-13T08:53:39;29.50;8.40
37678;DHT22;23517;50.390;8.616;2023-07-13T08:56:26;30.80;7.90
37678;DHT22;23517;50.390;8.616;2023-07-13T08:58:57;31.70;7.00
37678;DHT22;23517;50.390;8.616;2023-07-13T09:04:17;32.90;5.20
37678;DHT22;23517;50.390;8.616;2023-07-13T09:09:47;32.20;6.50
37678;DHT22;23517;50.390;8.616;2023-07-13T09:12:31;32.30;5.70
37678;DHT22;23517;50.390;8.616;2023-07-13T09:15:24;31.00;6.30
37678;DHT22;23517;50.390;8.616;2023-07-13T09:17:55;30.10;8.20
37678;DHT22;23517;50.390;8.616;2023-07-13T09:20:35;30.00;8.20
37678;DHT22;23517;50.390;8.616;2023-07-13T09:23:09;30.10;8.20
37678;DHT22;23517;50.390;8.616;2023-07-13T09:25:41;29.90;7.90
37678;DHT22;23517;50.390;8.616;2023-07-13T09:28:19;29.70;8.70
37678;DHT22;23517;50.390;8.616;2023-07-13T09:34:11;29.60;8.30
37678;DHT22;23517;50.390;8.616;2023-07-13T09:36:40;30.30;8.20
37678;DHT22;23517;50.390;8.616;2023-07-13T09:41:52;31.30;7.20
37678;DHT22;23517;50.390;8.616;2023-07-13T09:44:35;31.90;6.10
37678;DHT22;23517;50.390;8.616;2023-07-13T09:48:03;31.40;6.10
37678;DHT22;23517;50.390;8.616;2023-07-13T09:50:15;31.30;6.60
37678;DHT22;23517;50.390;8.616;2023-07-13T09:52:47;31.90;5.80
37678;DHT22;23517;50.390;8.616;2023-07-13T09:57:59;32.70;5.60
37678;DHT22;23517;50.390;8.616;2023-07-13T10:00:43;32.40;5.40
37678;DHT22;23517;50.390;8.616;2023-07-13T10:03:18;31.60;6.10
37678;DHT22;23517;50.390;8.616;2023-07-13T10:05:49;31.80;6.60
37678;DHT22;23517;50.390;8.616;2023-07-13T10:08:22;31.60;6.00
37678;DHT22;23517;50.390;8.616;2023-07-13T10:13:42;32.80;5.80
37678;DHT22;23517;50.390;8.616;2023-07-13T10:16:10;32.90;5.60
37678;DHT22;23517;50.390;8.616;2023-07-13T10:18:47;32.20;5.50
37678;DHT22;23517;50.390;8.616;2023-07-13T10:21:19;31.50;6.20
37678;DHT22;23517;50.390;8.616;2023-07-13T10:24:20;31.40;6.50
37678;DHT22;23517;50.390;8.616;2023-07-13T10:29:47;29.50;7.70
37678;DHT22;23517;50.390;8.616;2023-07-13T10:32:19;28.90;8.10
37678;DHT22;23517;50.390;8.616;2023-07-13T10:34:48;28.50;8.60
37678;DHT22;23517;50.390;8.616;2023-07-13T10:38:03;28.20;10.10
37678;DHT22;23517;50.390;8.616;2023-07-13T10:40:40;28.40;9.70
37678;DHT22;23517;50.390;8.616;2023-07-13T10:43:26;28.30;9.50
37678;DHT22;23517;50.390;8.616;2023-07-13T10:45:55;28.20;9.70
37678;DHT22;23517;50.390;8.616;2023-07-13T10:48:23;28.50;9.20
37678;DHT22;23517;50.390;8.616;2023-07-13T10:50:52;28.30;9.60
37678;DHT22;23517;50.390;8.616;2023-07-13T10:53:31;28.00;9.90
37678;DHT22;23517;50.390;8.616;2023-07-13T10:56:01;27.70;9.90
37678;DHT22;23517;50.390;8.616;2023-07-13T10:58:37;27.60;10.10
37678;DHT22;23517;50.390;8.616;2023-07-13T11:01:13;27.40;10.30
37678;DHT22;23517;50.390;8.616;2023-07-13T11:04:01;27.10;10.30
37678;DHT22;23517;50.390;8.616;2023-07-13T11:06:37;26.50;10.70
37678;DHT22;23517;50.390;8.616;2023-07-13T11:12:09;26.40;11.10
37678;DHT22;23517;50.390;8.616;2023-07-13T11:18:01;26.70;11.10
37678;DHT22;23517;50.390;8.616;2023-07-13T11:20:36;26.70;10.90
37678;DHT22;23517;50.390;8.616;2023-07-13T11:25:40;26.10;11.30
37678;DHT22;23517;50.390;8.616;2023-07-13T11:33:44;25.90;11.70
37678;DHT22;23517;50.390;8.616;2023-07-13T11:36:21;25.90;11.80
37678;DHT22;23517;50.390;8.616;2023-07-13T11:39:29;26.10;11.90
37678;DHT22;23517;50.390;8.616;2023-07-13T11:42:00;26.10;11.50
37678;DHT22;23517;50.390;8.616;2023-07-13T11:44:32;26.00;11.60
37678;DHT22;23517;50.390;8.616;2023-07-13T11:47:09;26.20;12.20
37678;DHT22;23517;50.390;8.616;2023-07-13T11:49:48;26.30;12.40
37678;DHT22;23517;50.390;8.616;2023-07-13T11:52:22;26.20;12.60
37678;DHT22;23517;50.390;8.616;2023-07-13T11:55:01;26.20;12.80
37678;DHT22;23517;50.390;8.616;2023-07-13T11:57:30;26.40;12.50
37678;DHT22;23517;50.390;8.616;2023-07-13T12:00:17;26.40;12.40
37678;DHT22;23517;50.390;8.616;2023-07-13T12:02:50;26.40;12.40
37678;DHT22;23517;50.390;8.616;2023-07-13T12:05:19;26.50;12.40
37678;DHT22;23517;50.390;8.616;2023-07-13T12:07:47;26.50;12.20
37678;DHT22;23517;50.390;8.616;2023-07-13T12:10:21;26.40;12.00
37678;DHT22;23517;50.390;8.616;2023-07-13T12:13:04;26.20;12.40
37678;DHT22;23517;50.390;8.616;2023-07-13T12:15:42;26.30;12.50
37678;DHT22;23517;50.390;8.616;2023-07-13T12:18:18;26.40;12.40
37678;DHT22;23517;50.390;8.616;2023-07-13T12:20:47;26.40;11.60
37678;DHT22;23517;50.390;8.616;2023-07-13T12:25:55;26.40;11.50
37678;DHT22;23517;50.390;8.616;2023-07-13T12:34:08;26.40;11.50
37678;DHT22;23517;50.390;8.616;2023-07-13T12:36:38;26.50;11.40
37678;DHT22;23517;50.390;8.616;2023-07-13T12:39:25;26.60;11.50
37678;DHT22;23517;50.390;8.616;2023-07-13T12:42:26;26.70;11.10
37678;DHT22;23517;50.390;8.616;2023-07-13T12:44:58;26.60;11.10
37678;DHT22;23517;50.390;8.616;2023-07-13T12:47:27;26.60;11.60
37678;DHT22;23517;50.390;8.616;2023-07-13T12:49:58;26.60;10.90
37678;DHT22;23517;50.390;8.616;2023-07-13T12:52:35;26.50;10.90
37678;DHT22;23517;50.390;8.616;2023-07-13T12:55:10;26.50;11.20
37678;DHT22;23517;50.390;8.616;2023-07-13T12:57:51;26.40;11.50
37678;DHT22;23517;50.390;8.616;2023-07-13T13:00:30;26.40;11.30
37678;DHT22;23517;50.390;8.616;2023-07-13T13:03:06;26.30;11.50
37678;DHT22;23517;50.390;8.616;2023-07-13T13:08:48;26.40;11.70
37678;DHT22;23517;50.390;8.616;2023-07-13T13:11:17;26.50;11.40
37678;DHT22;23517;50.390;8.616;2023-07-13T13:13:46;26.30;11.70
37678;DHT22;23517;50.390;8.616;2023-07-13T13:16:32;26.20;11.60
37678;DHT22;23517;50.390;8.616;2023-07-13T13:19:14;26.20;11.00
37678;DHT22;23517;50.390;8.616;2023-07-13T13:21:48;26.20;11.10
37678;DHT22;23517;50.390;8.616;2023-07-13T13:24:21;26.20;11.10
37678;DHT22;23517;50.390;8.616;2023-07-13T13:26:51;26.30;11.10
37678;DHT22;23517;50.390;8.616;2023-07-13T13:29:23;26.40;11.10
37678;DHT22;23517;50.390;8.616;2023-07-13T13:31:52;26.50;11.00
37678;DHT22;23517;50.390;8.616;2023-07-13T13:34:21;26.60;11.50
37678;DHT22;23517;50.390;8.616;2023-07-13T13:36:52;26.60;11.50
37678;DHT22;23517;50.390;8.616;2023-07-13T13:39:28;26.50;11.20
37678;DHT22;23517;50.390;8.616;2023-07-13T13:41:57;26.20;11.90
37678;DHT22;23517;50.390;8.616;2023-07-13T13:44:24;26.10;12.20
37678;DHT22;23517;50.390;8.616;2023-07-13T13:46:54;26.00;12.30
37678;DHT22;23517;50.390;8.616;2023-07-13T13:49:24;26.00;12.30
37678;DHT22;23517;50.390;8.616;2023-07-13T13:51:53;26.00;12.30
37678;DHT22;23517;50.390;8.616;2023-07-13T13:54:21;26.30;12.30
37678;DHT22;23517;50.390;8.616;2023-07-13T13:56:51;26.30;12.20
37678;DHT22;23517;50.390;8.616;2023-07-13T13:59:19;26.40;12.20
37678;DHT22;23517;50.390;8.616;2023-07-13T14:01:47;26.40;12.00
37678;DHT22;23517;50.390;8.616;2023-07-13T14:04:20;26.50;12.00
37678;DHT22;23517;50.390;8.616;2023-07-13T14:06:48;26.50;11.90
37678;DHT22;23517;50.390;8.616;2023-07-13T14:09:17;26.50;11.60
37678;DHT22;23517;50.390;8.616;2023-07-13T14:11:46;26.30;12.10
37678;DHT22;23517;50.390;8.616;2023-07-13T14:14:22;26.20;12.20
37678;DHT22;23517;50.390;8.616;2023-07-13T14:16:51;26.40;12.40
37678;DHT22;23517;50.390;8.616;2023-07-13T14:19:22;26.30;12.20
37678;DHT22;23517;50.390;8.616;2023-07-13T14:21:49;26.30;12.20
37678;DHT22;23517;50.390;8.616;2023-07-13T14:24:19;26.30;12.10
37678;DHT22;23517;50.390;8.616;2023-07-13T14:26:46;26.10;12.30
37678;DHT22;23517;50.390;8.616;2023-07-13T14:29:15;26.00;13.20
37678;DHT22;23517;50.390;8.616;2023-07-13T14:31:48;26.20;12.50
37678;DHT22;23517;50.390;8.616;2023-07-13T14:34:14;26.40;11.50
37678;DHT22;23517;50.390;8.616;2023-07-13T14:36:43;26.40;11.90
37678;DHT22;23517;50.390;8.616;2023-07-13T14:39:17;26.20;12.00
37678;DHT22;23517;50.390;8.616;2023-07-13T14:41:45;26.20;12.30
37678;DHT22;23517;50.390;8.616;2023-07-13T14:44:17;26.30;12.00
37678;DHT22;23517;50.390;8.616;2023-07-13T14:46:47;26.10;12.00
37678;DHT22;23517;50.390;8.616;2023-07-13T14:49:25;25.90;12.00
37678;DHT22;23517;50.390;8.616;2023-07-13T14:54:44;26.00;12.00
37678;DHT22;23517;50.390;8.616;2023-07-13T14:57:19;26.10;12.10
37678;DHT22;23517;50.390;8.616;2023-07-13T14:59:48;26.10;12.00
37678;DHT22;23517;50.390;8.616;2023-07-13T15:05:05;25.90;12.30
37678;DHT22;23517;50.390;8.616;2023-07-13T15:07:38;26.00;12.40
37678;DHT22;23517;50.390;8.616;2023-07-13T15:10:16;26.20;12.00
37678;DHT22;23517;50.390;8.616;2023-07-13T15:12:45;26.30;12.40
37678;DHT22;23517;50.390;8.616;2023-07-13T15:15:12;26.20;11.80
37678;DHT22;23517;50.390;8.616;2023-07-13T15:17:41;26.10;12.40
37678;DHT22;23517;50.390;8.616;2023-07-13T15:20:29;26.20;12.50
37678;DHT22;23517;50.390;8.616;2023-07-13T15:23:00;26.30;12.50
37678;DHT22;23517;50.390;8.616;2023-07-13T15:25:29;26.30;12.80
37678;DHT22;23517;50.390;8.616;2023-07-13T15:27:59;26.50;12.40
37678;DHT22;23517;50.390;8.616;2023-07-13T15:30:30;26.70;12.20
37678;DHT22;23517;50.390;8.616;2023-07-13T15:33:00;26.90;11.40
37678;DHT22;23517;50.390;8.616;2023-07-13T15:35:35;26.60;11.40
37678;DHT22;23517;50.390;8.616;2023-07-13T15:38:14;26.50;11.50
37678;DHT22;23517;50.390;8.616;2023-07-13T15:40:59;26.40;11.50
37678;DHT22;23517;50.390;8.616;2023-07-13T15:43:27;26.30;11.60
37678;DHT22;23517;50.390;8.616;2023-07-13T15:45:54;26.20;12.70
37678;DHT22;23517;50.390;8.616;2023-07-13T15:48:23;26.20;11.90
37678;DHT22;23517;50.390;8.616;2023-07-13T15:50:55;26.20;11.90
37678;DHT22;23517;50.390;8.616;2023-07-13T15:53:33;26.10;12.30
37678;DHT22;23517;50.390;8.616;2023-07-13T15:56:02;26.00;12.60
37678;DHT22;23517;50.390;8.616;2023-07-13T15:58:43;25.80;12.30
37678;DHT22;23517;50.390;8.616;2023-07-13T16:01:10;25.70;12.20
37678;DHT22;23517;50.390;8.616;2023-07-13T16:03:37;25.40;12.50
37678;DHT22;23517;50.390;8.616;2023-07-13T16:06:17;25.30;13.20
37678;DHT22;23517;50.390;8.616;2023-07-13T16:08:49;25.30;13.50
37678;DHT22;23517;50.390;8.616;2023-07-13T16:11:23;25.30;12.70
37678;DHT22;23517;50.390;8.616;2023-07-13T16:13:52;25.50;12.20
37678;DHT22;23517;50.390;8.616;2023-07-13T16:16:28;25.60;12.10
37678;DHT22;23517;50.390;8.616;2023-07-13T16:18:58;25.70;12.10
37678;DHT22;23517;50.390;8.616;2023-07-13T16:21:30;25.70;11.90
37678;DHT22;23517;50.390;8.616;2023-07-13T16:24:00;25.90;11.80
37678;DHT22;23517;50.390;8.616;2023-07-13T16:26:33;25.90;11.80
37678;DHT22;23517;50.390;8.616;2023-07-13T16:29:22;25.90;11.50
37678;DHT22;23517;50.390;8.616;2023-07-13T16:32:09;25.60;11.90
37678;DHT22;23517;50.390;8.616;2023-07-13T16:34:39;25.40;12.20
37678;DHT22;23517;50.390;8.616;2023-07-13T16:37:22;25.30;12.80
37678;DHT22;23517;50.390;8.616;2023-07-13T16:39:58;25.10;13.00
37678;DHT22;23517;50.390;8.616;2023-07-13T16:42:27;24.90;13.20
37678;DHT22;23517;50.390;8.616;2023-07-13T16:44:54;24.90;13.40
37678;DHT22;23517;50.390;8.616;2023-07-13T16:47:22;25.00;13.40
37678;DHT22;23517;50.390;8.616;2023-07-13T16:49:52;25.00;13.50
37678;DHT22;23517;50.390;8.616;2023-07-13T16:52:19;24.90;13.40
37678;DHT22;23517;50.390;8.616;2023-07-13T16:54:47;25.00;13.50
37678;DHT22;23517;50.390;8.616;2023-07-13T16:57:25;24.90;13.60